sensor_id;sensor_type;location;lat;lon;timestamp;temperature;humidity
35085;SHT85;21267;51.032;6.998;2023-01-13T00:01:24;11.80;87.03
35085;SHT85;21267;51.032;6.998;2023-01-13T00:03:51;11.80;87.06
35085;SHT85;21267;51.032;6.998;2023-01-13T00:06:21;11.75;87.34
35085;SHT85;21267;51.032;6.998;2023-01-13T00:08:49;11.76;87.33
35085;SHT85;21267;51.032;6.998;2023-01-13T00:11:17;11.85;86.81
35085;SHT85;21267;51.032;6.998;2023-01-13T00:13:44;11.79;87.10
35085;SHT85;21267;51.032;6.998;2023-01-13T00:16:15;11.78;87.29
35085;SHT85;21267;51.032;6.998;2023-01-13T00:18:43;11.79;87.40
35085;SHT85;21267;51.032;6.998;2023-01-13T00:21:18;11.66;87.68
35085;SHT85;21267;51.032;6.998;2023-01-13T00:23:45;11.58;88.08
35085;SHT85;21267;51.032;6.998;2023-01-13T00:26:18;11.56;87.92
35085;SHT85;21267;51.032;6.998;2023-01-13T00:28:47;11.48;87.67
35085;SHT85;21267;51.032;6.998;2023-01-13T00:31:19;11.45;88.00
35085;SHT85;21267;51.032;6.998;2023-01-13T00:33:46;11.42;88.01
35085;SHT85;21267;51.032;6.998;2023-01-13T00:36:18;11.39;87.71
35085;SHT85;21267;51.032;6.998;2023-01-13T00:38:45;11.36;87.64
35085;SHT85;21267;51.032;6.998;2023-01-13T00:41:21;11.34;87.17
35085;SHT85;21267;51.032;6.998;2023-01-13T00:43:48;11.21;86.59
35085;SHT85;21267;51.032;6.998;2023-01-13T00:46:17;11.25;85.49
35085;SHT85;21267;51.032;6.998;2023-01-13T00:48:46;11.24;84.53
35085;SHT85;21267;51.032;6.998;2023-01-13T00:51:14;11.17;84.67
35085;SHT85;21267;51.032;6.998;2023-01-13T00:53:44;11.12;85.05
35085;SHT85;21267;51.032;6.998;2023-01-13T00:56:19;11.01;85.99
35085;SHT85;21267;51.032;6.998;2023-01-13T01:01:38;11.01;87.15
35085;SHT85;21267;51.032;6.998;2023-01-13T01:04:06;11.01;87.67
35085;SHT85;21267;51.032;6.998;2023-01-13T01:06:33;11.06;87.70
35085;SHT85;21267;51.032;6.998;2023-01-13T01:08:59;11.10;87.44
35085;SHT85;21267;51.032;6.998;2023-01-13T01:11:29;11.11;87.09
35085;SHT85;21267;51.032;6.998;2023-01-13T01:13:58;11.11;87.08
35085;SHT85;21267;51.032;6.998;2023-01-13T01:16:27;11.12;87.12
35085;SHT85;21267;51.032;6.998;2023-01-13T01:18:55;11.10;86.41
35085;SHT85;21267;51.032;6.998;2023-01-13T01:21:24;11.06;86.86
35085;SHT85;21267;51.032;6.998;2023-01-13T01:23:51;11.12;86.16
35085;SHT85;21267;51.032;6.998;2023-01-13T01:26:20;11.15;85.05
35085;SHT85;21267;51.032;6.998;2023-01-13T01:28:47;11.18;84.23
35085;SHT85;21267;51.032;6.998;2023-01-13T01:31:21;11.15;83.26
35085;SHT85;21267;51.032;6.998;2023-01-13T01:33:49;11.21;82.43
35085;SHT85;21267;51.032;6.998;2023-01-13T01:36:17;11.21;81.72
35085;SHT85;21267;51.032;6.998;2023-01-13T01:38:45;11.18;81.57
35085;SHT85;21267;51.032;6.998;2023-01-13T01:41:21;11.04;78.55
35085;SHT85;21267;51.032;6.998;2023-01-13T01:46:36;10.79;77.19
35085;SHT85;21267;51.032;6.998;2023-01-13T01:54:50;10.42;74.65
35085;SHT85;21267;51.032;6.998;2023-01-13T01:57:28;10.42;74.46
35085;SHT85;21267;51.032;6.998;2023-01-13T01:59:56;10.30;75.89
35085;SHT85;21267;51.032;6.998;2023-01-13T02:02:24;10.03;77.07
35085;SHT85;21267;51.032;6.998;2023-01-13T02:04:52;9.73;78.93
35085;SHT85;21267;51.032;6.998;2023-01-13T02:07:23;9.61;79.82
35085;SHT85;21267;51.032;6.998;2023-01-13T02:09:53;9.61;78.98
35085;SHT85;21267;51.032;6.998;2023-01-13T02:12:21;9.53;79.32
35085;SHT85;21267;51.032;6.998;2023-01-13T02:15:05;9.57;78.55
35085;SHT85;21267;51.032;6.998;2023-01-13T02:17:41;9.55;78.41
35085;SHT85;21267;51.032;6.998;2023-01-13T02:24:32;9.54;77.80
35085;SHT85;21267;51.032;6.998;2023-01-13T02:39:07;9.64;77.87
35085;SHT85;21267;51.032;6.998;2023-01-13T02:41:55;9.77;77.51
35085;SHT85;21267;51.032;6.998;2023-01-13T02:45:00;9.75;78.03
35085;SHT85;21267;51.032;6.998;2023-01-13T02:47:43;9.77;78.34
35085;SHT85;21267;51.032;6.998;2023-01-13T02:50:33;9.85;78.59
35085;SHT85;21267;51.032;6.998;2023-01-13T02:53:26;9.88;79.19
35085;SHT85;21267;51.032;6.998;2023-01-13T02:56:08;9.95;79.44
35085;SHT85;21267;51.032;6.998;2023-01-13T02:58:50;9.97;79.16
35085;SHT85;21267;51.032;6.998;2023-01-13T03:01:31;9.92;79.65
35085;SHT85;21267;51.032;6.998;2023-01-13T03:04:13;9.91;80.07
35085;SHT85;21267;51.032;6.998;2023-01-13T03:07:02;9.95;80.02
35085;SHT85;21267;51.032;6.998;2023-01-13T03:09:51;9.90;80.15
35085;SHT85;21267;51.032;6.998;2023-01-13T03:12:50;9.97;79.94
35085;SHT85;21267;51.032;6.998;2023-01-13T03:21:52;9.81;80.41
35085;SHT85;21267;51.032;6.998;2023-01-13T03:26:57;9.87;79.82
35085;SHT85;21267;51.032;6.998;2023-01-13T03:29:33;9.87;79.40
35085;SHT85;21267;51.032;6.998;2023-01-13T03:35:21;9.80;78.92
35085;SHT85;21267;51.032;6.998;2023-01-13T03:37:56;9.80;79.40
35085;SHT85;21267;51.032;6.998;2023-01-13T03:40:30;9.87;78.73
35085;SHT85;21267;51.032;6.998;2023-01-13T03:43:08;9.80;79.26
35085;SHT85;21267;51.032;6.998;2023-01-13T03:46:09;9.87;78.72
35085;SHT85;21267;51.032;6.998;2023-01-13T03:48:40;9.88;78.43
35085;SHT85;21267;51.032;6.998;2023-01-13T03:51:12;9.81;79.03
35085;SHT85;21267;51.032;6.998;2023-01-13T03:53:48;9.92;78.10
35085;SHT85;21267;51.032;6.998;2023-01-13T03:56:24;9.88;78.41
35085;SHT85;21267;51.032;6.998;2023-01-13T03:58:52;9.91;78.60
35085;SHT85;21267;51.032;6.998;2023-01-13T04:01:31;9.84;78.40
35085;SHT85;21267;51.032;6.998;2023-01-13T04:04:04;9.90;77.60
35085;SHT85;21267;51.032;6.998;2023-01-13T04:06:42;9.88;77.60
35085;SHT85;21267;51.032;6.998;2023-01-13T04:09:18;9.87;77.91
35085;SHT85;21267;51.032;6.998;2023-01-13T04:11:53;9.78;78.16
35085;SHT85;21267;51.032;6.998;2023-01-13T04:14:22;9.78;77.80
35085;SHT85;21267;51.032;6.998;2023-01-13T04:16:50;9.71;78.41
35085;SHT85;21267;51.032;6.998;2023-01-13T04:19:18;9.73;78.05
35085;SHT85;21267;51.032;6.998;2023-01-13T04:21:44;9.58;78.04
35085;SHT85;21267;51.032;6.998;2023-01-13T04:24:11;9.70;78.12
35085;SHT85;21267;51.032;6.998;2023-01-13T04:26:38;9.65;77.72
35085;SHT85;21267;51.032;6.998;2023-01-13T04:29:04;9.57;77.90
35085;SHT85;21267;51.032;6.998;2023-01-13T04:31:31;9.54;78.02
35085;SHT85;21267;51.032;6.998;2023-01-13T04:33:57;9.44;78.48
35085;SHT85;21267;51.032;6.998;2023-01-13T04:36:24;9.39;78.49
35085;SHT85;21267;51.032;6.998;2023-01-13T04:38:55;9.27;78.93
35085;SHT85;21267;51.032;6.998;2023-01-13T04:41:22;9.30;79.14
35085;SHT85;21267;51.032;6.998;2023-01-13T04:43:49;9.36;78.18
35085;SHT85;21267;51.032;6.998;2023-01-13T04:46:15;9.40;78.41
35085;SHT85;21267;51.032;6.998;2023-01-13T04:48:42;9.39;78.45
35085;SHT85;21267;51.032;6.998;2023-01-13T04:51:09;9.47;78.48
35085;SHT85;21267;51.032;6.998;2023-01-13T04:53:36;9.53;77.77
35085;SHT85;21267;51.032;6.998;2023-01-13T04:56:02;9.41;78.45
35085;SHT85;21267;51.032;6.998;2023-01-13T04:58:29;9.43;78.84
35085;SHT85;21267;51.032;6.998;2023-01-13T05:00:55;9.48;78.73
35085;SHT85;21267;51.032;6.998;2023-01-13T05:03:23;9.58;78.28
35085;SHT85;21267;51.032;6.998;2023-01-13T05:05:51;9.64;77.74
35085;SHT85;21267;51.032;6.998;2023-01-13T05:08:18;9.54;78.20
35085;SHT85;21267;51.032;6.998;2023-01-13T05:10:45;9.57;78.13
35085;SHT85;21267;51.032;6.998;2023-01-13T05:13:12;9.61;77.65
35085;SHT85;21267;51.032;6.998;2023-01-13T05:16:04;9.57;77.79
35085;SHT85;21267;51.032;6.998;2023-01-13T05:18:50;9.53;77.94
35085;SHT85;21267;51.032;6.998;2023-01-13T05:21:16;9.58;78.14
35085;SHT85;21267;51.032;6.998;2023-01-13T05:24:02;9.57;77.85
35085;SHT85;21267;51.032;6.998;2023-01-13T05:26:47;9.58;78.02
35085;SHT85;21267;51.032;6.998;2023-01-13T05:29:14;9.57;77.30
35085;SHT85;21267;51.032;6.998;2023-01-13T05:31:41;9.53;78.04
35085;SHT85;21267;51.032;6.998;2023-01-13T05:34:07;9.61;77.72
35085;SHT85;21267;51.032;6.998;2023-01-13T05:36:34;9.60;77.78
35085;SHT85;21267;51.032;6.998;2023-01-13T05:39:01;9.53;77.65
35085;SHT85;21267;51.032;6.998;2023-01-13T05:41:27;9.58;77.49
35085;SHT85;21267;51.032;6.998;2023-01-13T05:44:13;9.58;77.34
35085;SHT85;21267;51.032;6.998;2023-01-13T05:46:39;9.51;77.16
35085;SHT85;21267;51.032;6.998;2023-01-13T05:49:07;9.47;77.59
35085;SHT85;21267;51.032;6.998;2023-01-13T05:51:33;9.50;77.70
35085;SHT85;21267;51.032;6.998;2023-01-13T05:54:00;9.41;77.79
35085;SHT85;21267;51.032;6.998;2023-01-13T05:56:27;9.44;77.67
35085;SHT85;21267;51.032;6.998;2023-01-13T05:58:53;9.36;78.10
35085;SHT85;21267;51.032;6.998;2023-01-13T06:01:20;9.46;77.38
35085;SHT85;21267;51.032;6.998;2023-01-13T06:03:46;9.51;77.10
35085;SHT85;21267;51.032;6.998;2023-01-13T06:06:13;9.46;77.18
35085;SHT85;21267;51.032;6.998;2023-01-13T06:08:39;9.48;77.30
35085;SHT85;21267;51.032;6.998;2023-01-13T06:11:06;9.48;77.17
35085;SHT85;21267;51.032;6.998;2023-01-13T06:13:33;9.46;77.23
35085;SHT85;21267;51.032;6.998;2023-01-13T06:16:00;9.46;77.14
35085;SHT85;21267;51.032;6.998;2023-01-13T06:18:29;9.40;77.19
35085;SHT85;21267;51.032;6.998;2023-01-13T06:20:56;9.46;76.82
35085;SHT85;21267;51.032;6.998;2023-01-13T06:23:24;9.44;77.13
35085;SHT85;21267;51.032;6.998;2023-01-13T06:26:11;9.46;76.92
35085;SHT85;21267;51.032;6.998;2023-01-13T06:28:39;9.44;76.72
35085;SHT85;21267;51.032;6.998;2023-01-13T06:31:07;9.47;76.25
35085;SHT85;21267;51.032;6.998;2023-01-13T06:33:38;9.46;76.73
35085;SHT85;21267;51.032;6.998;2023-01-13T06:36:11;9.53;76.67
35085;SHT85;21267;51.032;6.998;2023-01-13T06:38:42;9.53;76.55
35085;SHT85;21267;51.032;6.998;2023-01-13T06:41:13;9.57;76.47
35085;SHT85;21267;51.032;6.998;2023-01-13T06:43:39;9.54;76.57
35085;SHT85;21267;51.032;6.998;2023-01-13T06:46:06;9.57;76.24
35085;SHT85;21267;51.032;6.998;2023-01-13T06:48:33;9.55;76.51
35085;SHT85;21267;51.032;6.998;2023-01-13T06:51:01;9.51;76.78
35085;SHT85;21267;51.032;6.998;2023-01-13T06:53:28;9.54;76.84
35085;SHT85;21267;51.032;6.998;2023-01-13T06:55:55;9.50;76.81
35085;SHT85;21267;51.032;6.998;2023-01-13T06:58:22;9.46;77.05
35085;SHT85;21267;51.032;6.998;2023-01-13T07:00:48;9.55;76.78
35085;SHT85;21267;51.032;6.998;2023-01-13T07:03:17;9.53;76.99
35085;SHT85;21267;51.032;6.998;2023-01-13T07:05:51;9.58;76.33
35085;SHT85;21267;51.032;6.998;2023-01-13T07:08:21;9.51;76.08
35085;SHT85;21267;51.032;6.998;2023-01-13T07:10:48;9.44;76.51
35085;SHT85;21267;51.032;6.998;2023-01-13T07:13:18;9.44;76.68
35085;SHT85;21267;51.032;6.998;2023-01-13T07:16:06;9.33;76.62
35085;SHT85;21267;51.032;6.998;2023-01-13T07:18:34;9.29;77.07
35085;SHT85;21267;51.032;6.998;2023-01-13T07:21:09;9.26;76.66
35085;SHT85;21267;51.032;6.998;2023-01-13T07:23:37;9.26;76.50
35085;SHT85;21267;51.032;6.998;2023-01-13T07:26:07;9.36;75.83
35085;SHT85;21267;51.032;6.998;2023-01-13T07:28:35;9.30;75.78
35085;SHT85;21267;51.032;6.998;2023-01-13T07:33:38;9.20;75.95
35085;SHT85;21267;51.032;6.998;2023-01-13T07:36:05;9.18;75.72
35085;SHT85;21267;51.032;6.998;2023-01-13T07:38:32;9.20;75.76
35085;SHT85;21267;51.032;6.998;2023-01-13T07:40:59;9.16;76.19
35085;SHT85;21267;51.032;6.998;2023-01-13T07:43:50;9.02;76.76
35085;SHT85;21267;51.032;6.998;2023-01-13T07:46:17;9.03;76.92
35085;SHT85;21267;51.032;6.998;2023-01-13T07:48:46;9.11;76.65
35085;SHT85;21267;51.032;6.998;2023-01-13T07:51:13;9.13;76.81
35085;SHT85;21267;51.032;6.998;2023-01-13T07:53:40;9.12;77.01
35085;SHT85;21267;51.032;6.998;2023-01-13T07:56:22;9.30;76.49
35085;SHT85;21267;51.032;6.998;2023-01-13T07:58:51;9.22;76.61
35085;SHT85;21267;51.032;6.998;2023-01-13T08:01:18;9.23;76.85
35085;SHT85;21267;51.032;6.998;2023-01-13T08:03:46;9.19;77.07
35085;SHT85;21267;51.032;6.998;2023-01-13T08:06:12;9.09;78.04
35085;SHT85;21267;51.032;6.998;2023-01-13T08:08:39;9.03;78.00
35085;SHT85;21267;51.032;6.998;2023-01-13T08:11:07;9.05;78.25
35085;SHT85;21267;51.032;6.998;2023-01-13T08:13:36;9.26;77.67
35085;SHT85;21267;51.032;6.998;2023-01-13T08:16:06;9.46;77.09
35085;SHT85;21267;51.032;6.998;2023-01-13T08:18:34;9.58;76.46
35085;SHT85;21267;51.032;6.998;2023-01-13T08:21:12;9.63;76.36
35085;SHT85;21267;51.032;6.998;2023-01-13T08:23:43;9.69;76.20
35085;SHT85;21267;51.032;6.998;2023-01-13T08:26:15;9.63;76.44
35085;SHT85;21267;51.032;6.998;2023-01-13T08:28:43;9.84;76.22
35085;SHT85;21267;51.032;6.998;2023-01-13T08:31:13;9.74;76.34
35085;SHT85;21267;51.032;6.998;2023-01-13T08:33:43;9.70;76.31
35085;SHT85;21267;51.032;6.998;2023-01-13T08:36:10;9.53;76.69
35085;SHT85;21267;51.032;6.998;2023-01-13T08:38:38;9.54;76.98
35085;SHT85;21267;51.032;6.998;2023-01-13T08:41:13;9.54;76.82
35085;SHT85;21267;51.032;6.998;2023-01-13T08:43:41;9.77;76.43
35085;SHT85;21267;51.032;6.998;2023-01-13T08:46:09;9.80;75.91
35085;SHT85;21267;51.032;6.998;2023-01-13T08:48:37;9.70;76.41
35085;SHT85;21267;51.032;6.998;2023-01-13T08:51:05;9.67;76.85
35085;SHT85;21267;51.032;6.998;2023-01-13T08:53:32;9.71;76.98
35085;SHT85;21267;51.032;6.998;2023-01-13T08:55:59;9.55;76.58
35085;SHT85;21267;51.032;6.998;2023-01-13T08:58:28;9.54;76.53
35085;SHT85;21267;51.032;6.998;2023-01-13T09:00:55;9.63;75.59
35085;SHT85;21267;51.032;6.998;2023-01-13T09:03:22;9.67;75.73
35085;SHT85;21267;51.032;6.998;2023-01-13T09:05:49;9.63;75.98
35085;SHT85;21267;51.032;6.998;2023-01-13T09:08:18;9.61;76.28
35085;SHT85;21267;51.032;6.998;2023-01-13T09:10:45;9.60;75.95
35085;SHT85;21267;51.032;6.998;2023-01-13T09:13:12;9.60;76.17
35085;SHT85;21267;51.032;6.998;2023-01-13T09:15:45;9.65;76.15
35085;SHT85;21267;51.032;6.998;2023-01-13T09:18:12;9.64;75.46
35085;SHT85;21267;51.032;6.998;2023-01-13T09:20:39;9.58;75.61
35085;SHT85;21267;51.032;6.998;2023-01-13T09:23:06;9.60;75.49
35085;SHT85;21267;51.032;6.998;2023-01-13T09:25:36;9.57;75.28
35085;SHT85;21267;51.032;6.998;2023-01-13T09:28:03;9.61;75.49
35085;SHT85;21267;51.032;6.998;2023-01-13T09:30:34;9.65;74.98
35085;SHT85;21267;51.032;6.998;2023-01-13T09:33:01;9.65;74.47
35085;SHT85;21267;51.032;6.998;2023-01-13T09:35:46;9.75;74.49
35085;SHT85;21267;51.032;6.998;2023-01-13T09:38:13;9.80;74.21
35085;SHT85;21267;51.032;6.998;2023-01-13T09:40:39;9.77;74.16
35085;SHT85;21267;51.032;6.998;2023-01-13T09:43:18;9.80;74.07
35085;SHT85;21267;51.032;6.998;2023-01-13T09:46:13;9.82;73.90
35085;SHT85;21267;51.032;6.998;2023-01-13T09:49:01;9.87;73.82
35085;SHT85;21267;51.032;6.998;2023-01-13T09:51:30;9.92;73.37
35085;SHT85;21267;51.032;6.998;2023-01-13T09:54:21;9.80;73.55
35085;SHT85;21267;51.032;6.998;2023-01-13T09:56:51;9.82;73.35
35085;SHT85;21267;51.032;6.998;2023-01-13T09:59:18;9.81;73.20
35085;SHT85;21267;51.032;6.998;2023-01-13T10:02:29;9.94;73.00
35085;SHT85;21267;51.032;6.998;2023-01-13T10:04:35;9.98;73.20
35085;SHT85;21267;51.032;6.998;2023-01-13T10:07:03;10.01;72.69
35085;SHT85;21267;51.032;6.998;2023-01-13T10:09:47;10.03;72.55
35085;SHT85;21267;51.032;6.998;2023-01-13T10:12:21;10.08;72.77
35085;SHT85;21267;51.032;6.998;2023-01-13T10:15:21;10.08;72.88
35085;SHT85;21267;51.032;6.998;2023-01-13T10:18:00;10.28;72.30
35085;SHT85;21267;51.032;6.998;2023-01-13T10:20:55;10.21;72.15
35085;SHT85;21267;51.032;6.998;2023-01-13T10:23:32;10.13;72.21
35085;SHT85;21267;51.032;6.998;2023-01-13T10:26:18;10.19;72.65
35085;SHT85;21267;51.032;6.998;2023-01-13T10:28:52;10.12;72.83
35085;SHT85;21267;51.032;6.998;2023-01-13T10:31:20;10.11;72.80
35085;SHT85;21267;51.032;6.998;2023-01-13T10:33:48;10.12;72.82
35085;SHT85;21267;51.032;6.998;2023-01-13T10:36:17;10.21;72.66
35085;SHT85;21267;51.032;6.998;2023-01-13T10:38:48;10.22;72.80
35085;SHT85;21267;51.032;6.998;2023-01-13T10:41:18;10.11;72.32
35085;SHT85;21267;51.032;6.998;2023-01-13T10:46:20;10.22;72.39
35085;SHT85;21267;51.032;6.998;2023-01-13T10:48:57;10.22;72.29
35085;SHT85;21267;51.032;6.998;2023-01-13T10:54:01;10.26;72.16
35085;SHT85;21267;51.032;6.998;2023-01-13T10:56:31;10.18;72.38
35085;SHT85;21267;51.032;6.998;2023-01-13T11:04:30;10.15;72.20
35085;SHT85;21267;51.032;6.998;2023-01-13T11:06:58;10.18;72.09
35085;SHT85;21267;51.032;6.998;2023-01-13T11:09:26;10.22;72.21
35085;SHT85;21267;51.032;6.998;2023-01-13T11:11:55;10.32;72.10
35085;SHT85;21267;51.032;6.998;2023-01-13T11:14:39;10.36;71.58
35085;SHT85;21267;51.032;6.998;2023-01-13T11:17:20;10.48;71.30
35085;SHT85;21267;51.032;6.998;2023-01-13T11:19:54;10.55;70.93
35085;SHT85;21267;51.032;6.998;2023-01-13T11:22:36;10.48;70.51
35085;SHT85;21267;51.032;6.998;2023-01-13T11:25:09;10.49;69.96
35085;SHT85;21267;51.032;6.998;2023-01-13T11:28:15;10.66;69.85
35085;SHT85;21267;51.032;6.998;2023-01-13T11:33:27;10.70;69.53
35085;SHT85;21267;51.032;6.998;2023-01-13T11:36:10;10.71;69.75
35085;SHT85;21267;51.032;6.998;2023-01-13T11:41:51;10.48;70.16
35085;SHT85;21267;51.032;6.998;2023-01-13T11:47:20;10.60;70.04
35085;SHT85;21267;51.032;6.998;2023-01-13T11:49:47;10.61;70.05
35085;SHT85;21267;51.032;6.998;2023-01-13T12:03:40;10.34;70.15
35085;SHT85;21267;51.032;6.998;2023-01-13T12:06:23;10.36;70.11
35085;SHT85;21267;51.032;6.998;2023-01-13T12:09:17;10.28;70.07
35085;SHT85;21267;51.032;6.998;2023-01-13T12:12:05;10.32;70.29
35085;SHT85;21267;51.032;6.998;2023-01-13T12:23:13;10.36;70.18
35085;SHT85;21267;51.032;6.998;2023-01-13T12:25:44;10.42;69.93
35085;SHT85;21267;51.032;6.998;2023-01-13T12:28:19;10.43;69.89
35085;SHT85;21267;51.032;6.998;2023-01-13T12:30:52;10.33;69.96
35085;SHT85;21267;51.032;6.998;2023-01-13T12:36:27;10.40;70.29
35085;SHT85;21267;51.032;6.998;2023-01-13T12:41:51;10.25;71.32
35085;SHT85;21267;51.032;6.998;2023-01-13T12:45:20;10.25;71.43
35085;SHT85;21267;51.032;6.998;2023-01-13T12:47:45;10.23;71.78
35085;SHT85;21267;51.032;6.998;2023-01-13T12:52:52;10.30;72.36
35085;SHT85;21267;51.032;6.998;2023-01-13T12:55:35;10.13;73.35
35085;SHT85;21267;51.032;6.998;2023-01-13T13:05:53;9.67;77.82
35085;SHT85;21267;51.032;6.998;2023-01-13T13:08:45;9.63;78.84
35085;SHT85;21267;51.032;6.998;2023-01-13T13:13:59;9.55;80.05
35085;SHT85;21267;51.032;6.998;2023-01-13T13:27:26;9.44;80.13
35085;SHT85;21267;51.032;6.998;2023-01-13T13:30:01;9.43;79.88
35085;SHT85;21267;51.032;6.998;2023-01-13T13:41:16;9.33;79.99
35085;SHT85;21267;51.032;6.998;2023-01-13T13:47:00;9.29;80.12
35085;SHT85;21267;51.032;6.998;2023-01-13T13:49:45;9.32;80.17
35085;SHT85;21267;51.032;6.998;2023-01-13T13:54:50;9.24;81.17
35085;SHT85;21267;51.032;6.998;2023-01-13T13:57:44;9.18;81.91
35085;SHT85;21267;51.032;6.998;2023-01-13T14:02:47;9.06;82.77
35085;SHT85;21267;51.032;6.998;2023-01-13T14:05:20;9.03;82.95
35085;SHT85;21267;51.032;6.998;2023-01-13T14:08:12;9.09;82.55
35085;SHT85;21267;51.032;6.998;2023-01-13T14:10:38;9.16;82.42
35085;SHT85;21267;51.032;6.998;2023-01-13T14:15:43;9.24;82.46
35085;SHT85;21267;51.032;6.998;2023-01-13T14:18:13;9.26;82.35
35085;SHT85;21267;51.032;6.998;2023-01-13T14:20:41;9.37;82.05
35085;SHT85;21267;51.032;6.998;2023-01-13T14:23:17;9.40;81.71
35085;SHT85;21267;51.032;6.998;2023-01-13T14:25:49;9.34;81.44
35085;SHT85;21267;51.032;6.998;2023-01-13T14:28:33;9.37;81.60
35085;SHT85;21267;51.032;6.998;2023-01-13T14:31:01;9.43;80.73
35085;SHT85;21267;51.032;6.998;2023-01-13T14:33:35;9.48;80.78
35085;SHT85;21267;51.032;6.998;2023-01-13T14:41:43;9.46;80.99
35085;SHT85;21267;51.032;6.998;2023-01-13T14:44:25;9.41;81.32
35085;SHT85;21267;51.032;6.998;2023-01-13T14:46:54;9.46;81.50
35085;SHT85;21267;51.032;6.998;2023-01-13T14:49:37;9.41;81.39
35085;SHT85;21267;51.032;6.998;2023-01-13T14:52:20;9.40;81.78
35085;SHT85;21267;51.032;6.998;2023-01-13T14:57:32;9.34;81.48
35085;SHT85;21267;51.032;6.998;2023-01-13T15:07:55;9.43;80.60
35085;SHT85;21267;51.032;6.998;2023-01-13T15:10:25;9.48;80.62
35085;SHT85;21267;51.032;6.998;2023-01-13T15:12:54;9.40;80.74
35085;SHT85;21267;51.032;6.998;2023-01-13T15:17:53;9.44;80.98
35085;SHT85;21267;51.032;6.998;2023-01-13T15:20:21;9.41;81.32
35085;SHT85;21267;51.032;6.998;2023-01-13T15:22:49;9.33;81.71
35085;SHT85;21267;51.032;6.998;2023-01-13T15:25:16;9.32;81.90
35085;SHT85;21267;51.032;6.998;2023-01-13T15:27:45;9.37;82.13
35085;SHT85;21267;51.032;6.998;2023-01-13T15:30:20;9.36;82.34
35085;SHT85;21267;51.032;6.998;2023-01-13T15:32:47;9.26;82.90
35085;SHT85;21267;51.032;6.998;2023-01-13T15:35:15;9.29;82.87
35085;SHT85;21267;51.032;6.998;2023-01-13T15:37:42;9.20;83.47
35085;SHT85;21267;51.032;6.998;2023-01-13T15:40:20;9.24;83.48
35085;SHT85;21267;51.032;6.998;2023-01-13T15:42:47;9.15;83.75
35085;SHT85;21267;51.032;6.998;2023-01-13T15:45:33;9.18;83.55
35085;SHT85;21267;51.032;6.998;2023-01-13T15:48:21;9.19;83.75
35085;SHT85;21267;51.032;6.998;2023-01-13T15:50:48;9.22;83.13
35085;SHT85;21267;51.032;6.998;2023-01-13T15:53:14;9.24;83.14
35085;SHT85;21267;51.032;6.998;2023-01-13T15:55:44;9.15;82.94
35085;SHT85;21267;51.032;6.998;2023-01-13T15:58:12;9.18;83.20
35085;SHT85;21267;51.032;6.998;2023-01-13T16:00:40;9.05;82.75
35085;SHT85;21267;51.032;6.998;2023-01-13T16:03:14;9.06;82.77
35085;SHT85;21267;51.032;6.998;2023-01-13T16:05:44;8.99;82.73
35085;SHT85;21267;51.032;6.998;2023-01-13T16:08:17;9.05;82.85
35085;SHT85;21267;51.032;6.998;2023-01-13T16:10:44;9.01;82.84
35085;SHT85;21267;51.032;6.998;2023-01-13T16:13:12;8.92;83.80
35085;SHT85;21267;51.032;6.998;2023-01-13T16:15:42;8.85;84.80
35085;SHT85;21267;51.032;6.998;2023-01-13T16:18:20;8.47;87.40
35085;SHT85;21267;51.032;6.998;2023-01-13T16:20:51;8.17;88.71
35085;SHT85;21267;51.032;6.998;2023-01-13T16:23:21;8.12;89.72
35085;SHT85;21267;51.032;6.998;2023-01-13T16:25:48;7.92;90.39
35085;SHT85;21267;51.032;6.998;2023-01-13T16:28:21;7.79;91.48
35085;SHT85;21267;51.032;6.998;2023-01-13T16:30:48;7.78;91.09
35085;SHT85;21267;51.032;6.998;2023-01-13T16:33:16;7.78;91.79
35085;SHT85;21267;51.032;6.998;2023-01-13T16:35:43;7.73;91.90
35085;SHT85;21267;51.032;6.998;2023-01-13T16:38:30;7.62;92.87
35085;SHT85;21267;51.032;6.998;2023-01-13T16:40:57;7.55;93.05
35085;SHT85;21267;51.032;6.998;2023-01-13T16:43:24;7.58;93.20
35085;SHT85;21267;51.032;6.998;2023-01-13T16:45:51;7.61;92.91
35085;SHT85;21267;51.032;6.998;2023-01-13T16:48:19;7.72;92.43
35085;SHT85;21267;51.032;6.998;2023-01-13T16:50:46;7.73;92.17
35085;SHT85;21267;51.032;6.998;2023-01-13T16:53:12;7.72;92.63
35085;SHT85;21267;51.032;6.998;2023-01-13T16:55:40;7.68;92.94
35085;SHT85;21267;51.032;6.998;2023-01-13T16:58:17;7.75;93.31
35085;SHT85;21267;51.032;6.998;2023-01-13T17:00:53;7.75;93.28
35085;SHT85;21267;51.032;6.998;2023-01-13T17:03:20;7.75;93.23
35085;SHT85;21267;51.032;6.998;2023-01-13T17:05:48;7.82;93.10
35085;SHT85;21267;51.032;6.998;2023-01-13T17:08:16;7.81;92.66
35085;SHT85;21267;51.032;6.998;2023-01-13T17:10:46;7.90;92.34
35085;SHT85;21267;51.032;6.998;2023-01-13T17:13:13;7.94;92.09
35085;SHT85;21267;51.032;6.998;2023-01-13T17:15:43;8.03;91.89
35085;SHT85;21267;51.032;6.998;2023-01-13T17:18:11;8.04;91.25
35085;SHT85;21267;51.032;6.998;2023-01-13T17:20:41;8.07;91.30
35085;SHT85;21267;51.032;6.998;2023-01-13T17:23:08;8.12;90.66
35085;SHT85;21267;51.032;6.998;2023-01-13T17:25:34;8.20;90.09
35085;SHT85;21267;51.032;6.998;2023-01-13T17:28:15;8.34;89.05
35085;SHT85;21267;51.032;6.998;2023-01-13T17:30:42;8.34;89.07
35085;SHT85;21267;51.032;6.998;2023-01-13T17:33:09;8.43;88.90
35085;SHT85;21267;51.032;6.998;2023-01-13T17:35:49;8.41;88.25
35085;SHT85;21267;51.032;6.998;2023-01-13T17:38:16;8.53;87.13
35085;SHT85;21267;51.032;6.998;2023-01-13T17:40:42;8.47;87.31
35085;SHT85;21267;51.032;6.998;2023-01-13T17:43:09;8.51;87.29
35085;SHT85;21267;51.032;6.998;2023-01-13T17:45:39;8.48;88.41
35085;SHT85;21267;51.032;6.998;2023-01-13T17:48:06;8.43;87.63
35085;SHT85;21267;51.032;6.998;2023-01-13T17:50:32;8.50;87.73
35085;SHT85;21267;51.032;6.998;2023-01-13T17:53:00;8.48;87.31
35085;SHT85;21267;51.032;6.998;2023-01-13T17:55:27;8.55;86.19
35085;SHT85;21267;51.032;6.998;2023-01-13T17:58:01;8.57;85.80
35085;SHT85;21267;51.032;6.998;2023-01-13T18:00:28;8.62;85.52
35085;SHT85;21267;51.032;6.998;2023-01-13T18:02:55;8.64;85.85
35085;SHT85;21267;51.032;6.998;2023-01-13T18:05:36;8.74;84.86
35085;SHT85;21267;51.032;6.998;2023-01-13T18:08:03;8.78;84.46
35085;SHT85;21267;51.032;6.998;2023-01-13T18:10:31;8.74;84.75
35085;SHT85;21267;51.032;6.998;2023-01-13T18:13:12;8.81;84.42
35085;SHT85;21267;51.032;6.998;2023-01-13T18:15:39;8.85;83.68
35085;SHT85;21267;51.032;6.998;2023-01-13T18:18:19;8.91;83.21
35085;SHT85;21267;51.032;6.998;2023-01-13T18:20:46;8.95;83.14
35085;SHT85;21267;51.032;6.998;2023-01-13T18:23:31;8.99;82.34
35085;SHT85;21267;51.032;6.998;2023-01-13T18:26:18;9.01;81.83
35085;SHT85;21267;51.032;6.998;2023-01-13T18:29:04;9.05;82.15
35085;SHT85;21267;51.032;6.998;2023-01-13T18:31:31;9.06;81.67
35085;SHT85;21267;51.032;6.998;2023-01-13T18:33:57;9.06;80.99
35085;SHT85;21267;51.032;6.998;2023-01-13T18:36:24;9.09;81.37
35085;SHT85;21267;51.032;6.998;2023-01-13T18:38:50;9.03;81.33
35085;SHT85;21267;51.032;6.998;2023-01-13T18:41:17;9.05;81.31
35085;SHT85;21267;51.032;6.998;2023-01-13T18:44:04;9.02;81.01